Euskara    
Meteorología y climatología de Navarra
Datos de la estación - Meteo Navarra

Estación de Bardenas (Loma Negra) GN

Altitud 647 m.


Datos desde el 23/02/2021 hasta el 24/02/2021 en horario solar
Los datos son PROVISIONALES

Anterior Página 1 de 1 Siguiente Descargar: Formato para Excel 2000 o superior   Formato csv   Formato para OpenOffice Calc
Fecha Temperatura Humedad relativa Radiación global Insolación Precipitación Vel. viento 10 m Vel. viento 10 m Dir. viento 10 m
°C % W/m² s l/m² m/s km/h °
23/02/2021 0:00 4.9 100 0.0 0 0.0 1.4 5.1 166
23/02/2021 0:10 4.9 100 0.0 0 0.0 1.6 5.8 158
23/02/2021 0:20 4.8 100 0.0 0 0.0 1.6 5.7 149
23/02/2021 0:30 4.9 100 0.0 0 0.0 1.8 6.4 123
23/02/2021 0:40 5.2 100 0.0 0 0.0 2.1 7.4 139
23/02/2021 0:50 5.2 100 0.0 0 0.0 1.3 4.6 177
23/02/2021 1:00 5.2 100 0.0 0 0.0 2.2 8.0 165
23/02/2021 1:10 5.2 100 0.0 0 0.0 3.3 11.9 151
23/02/2021 1:20 5.0 100 0.0 0 0.0 3.3 12.0 149
23/02/2021 1:30 4.7 100 0.0 0 0.0 3.2 11.4 151
23/02/2021 1:40 4.6 100 0.0 0 0.0 4.0 14.3 149
23/02/2021 1:50 4.7 100 0.0 0 0.0 4.1 14.7 150
23/02/2021 2:00 4.8 100 0.0 0 0.0 3.7 13.4 158
23/02/2021 2:10 4.8 100 0.0 0 0.0 3.4 12.2 166
23/02/2021 2:20 4.9 100 0.0 0 0.0 3.7 13.2 165
23/02/2021 2:30 5.0 100 0.0 0 0.0 4.2 15.0 167
23/02/2021 2:40 4.9 100 0.0 0 0.0 3.3 12.0 166
23/02/2021 2:50 5.1 100 0.0 0 0.0 3.5 12.5 174
23/02/2021 3:00 5.1 100 0.0 0 0.0 3.9 14.2 179
23/02/2021 3:10 5.1 100 0.0 0 0.0 3.7 13.2 165
23/02/2021 3:20 5.1 100 0.0 0 0.0 3.5 12.7 165
23/02/2021 3:30 5.2 100 0.0 0 0.0 3.8 13.6 161
23/02/2021 3:40 5.2 100 0.0 0 0.0 3.4 12.2 164
23/02/2021 3:50 5.2 100 0.0 0 0.0 3.5 12.5 158
23/02/2021 4:00 5.2 100 0.0 0 0.0 3.5 12.6 160
23/02/2021 4:10 5.2 100 0.0 0 0.0 3.9 14.2 159
23/02/2021 4:20 5.2 100 0.0 0 0.0 3.8 13.7 156
23/02/2021 4:30 5.1 100 0.0 0 0.0 3.5 12.6 158
23/02/2021 4:40 5.3 100 0.0 0 0.0 3.3 11.9 155
23/02/2021 4:50 5.2 100 0.0 0 0.0 3.5 12.5 159
23/02/2021 5:00 5.2 100 0.0 0 0.0 3.9 14.0 157
23/02/2021 5:10 5.2 100 0.0 0 0.0 4.1 14.7 150
23/02/2021 5:20 5.2 100 0.0 0 0.0 4.7 17.1 153
23/02/2021 5:30 5.1 100 0.0 0 0.0 4.4 15.8 155
23/02/2021 5:40 5.0 100 0.0 0 0.0 4.7 16.7 151
23/02/2021 5:50 4.9 100 0.0 0 0.0 5.1 18.3 147
23/02/2021 6:00 4.9 100 0.0 0 0.0 5.3 18.9 154
23/02/2021 6:10 4.9 100 0.0 0 0.0 5.8 21.0 152
23/02/2021 6:20 4.8 100 0.0 0 0.0 5.3 19.2 157
23/02/2021 6:30 4.7 100 0.0 0 0.0 6.0 21.5 156
23/02/2021 6:40 4.4 100 0.0 0 0.0 6.3 22.8 153
23/02/2021 6:50 4.4 100 0.0 0 0.0 5.7 20.6 146
23/02/2021 7:00 4.3 100 0.0 0 0.0 6.4 23.1 149
23/02/2021 7:10 4.4 100 12.0 12 0.0 6.3 22.7 149
23/02/2021 7:20 4.4 100 26.0 252 0.0 6.3 22.6 151
23/02/2021 7:30 4.4 100 22.3 0 0.0 6.5 23.4 150
23/02/2021 7:40 4.4 100 38.4 46 0.0 6.6 23.9 149
23/02/2021 7:50 4.8 100 129.4 600 0.0 6.6 23.9 148
23/02/2021 8:00 5.1 100 160.4 600 0.0 7.0 25.2 148
23/02/2021 8:10 5.4 100 192.6 600 0.0 6.9 24.9 150
23/02/2021 8:20 5.8 100 222.7 600 0.0 7.0 25.2 153
23/02/2021 8:30 6.0 100 253.5 600 0.0 7.3 26.3 154
23/02/2021 8:40 6.3 100 243.6 548 0.0 7.2 25.9 153
23/02/2021 8:50 6.9 100 307.4 600 0.0 7.3 26.1 149
23/02/2021 9:00 7.0 99 344.3 600 0.0 7.1 25.7 154
23/02/2021 9:10 7.1 94 370.8 600 0.0 7.4 26.6 157
23/02/2021 9:20 7.4 95 398.9 600 0.0 7.4 26.7 155
23/02/2021 9:30 7.6 91 426.8 600 0.0 8.3 29.9 158
23/02/2021 9:40 7.6 91 453.9 600 0.0 7.9 28.3 160
23/02/2021 9:50 7.8 91 481.0 600 0.0 7.7 27.8 160
23/02/2021 10:00 7.9 94 506.7 600 0.0 7.6 27.3 158
23/02/2021 10:10 8.0 95 527.3 600 0.0 8.1 29.1 159
23/02/2021 10:20 8.2 94 504.3 534 0.0 7.6 27.4 158
23/02/2021 10:30 8.4 91 549.2 574 0.0 7.3 26.4 158
23/02/2021 10:40 8.5 89 583.0 580 0.0 7.3 26.1 162
23/02/2021 10:50 9.0 90 610.7 600 0.0 6.7 24.1 160
23/02/2021 11:00 8.9 90 586.3 562 0.0 7.0 25.2 157
23/02/2021 11:10 9.2 89 555.2 534 0.0 7.0 25.2 154
23/02/2021 11:20 9.3 86 651.2 600 0.0 7.9 28.4 157
23/02/2021 11:30 9.4 85 644.3 600 0.0 8.1 29.1 160
23/02/2021 11:40 9.7 85 656.9 600 0.0 7.4 26.7 157
23/02/2021 11:50 10.3 84 663.2 600 0.0 7.5 27.0 152
23/02/2021 12:00 10.2 83 668.5 600 0.0 7.1 25.7 161
23/02/2021 12:10 10.6 83 674.1 600 0.0 7.1 25.7 152
23/02/2021 12:20 10.8 81 672.9 600 0.0 8.2 29.3 153
23/02/2021 12:30 11.0 81 677.7 600 0.0 7.7 27.9 153
23/02/2021 12:40 11.6 80 674.8 600 0.0 7.4 26.7 149
23/02/2021 12:50 11.8 77 669.9 600 0.0 7.6 27.3 148
23/02/2021 13:00 12.5 75 661.3 600 0.0 7.9 28.3 144
23/02/2021 13:10 12.3 73 649.4 600 0.0 8.6 30.9 145
23/02/2021 13:20 12.4 73 638.9 600 0.0 7.6 27.3 150
23/02/2021 13:30 12.5 76 628.9 600 0.0 8.6 30.9 137
23/02/2021 13:40 12.9 74 570.2 564 0.0 8.7 31.4 139
23/02/2021 13:50 12.5 74 482.3 450 0.0 9.1 32.8 138
23/02/2021 14:00 12.3 73 472.0 456 0.0 9.1 32.6 143
23/02/2021 14:10 12.8 73 569.6 600 0.0 8.7 31.2 139
23/02/2021 14:20 13.1 69 544.0 600 0.0 8.9 31.9 140
23/02/2021 14:30 13.1 68 523.4 600 0.0 9.9 35.5 141
23/02/2021 14:40 12.9 68 502.2 600 0.0 9.4 33.8 147
23/02/2021 14:50 13.0 68 482.8 600 0.0 9.3 33.4 146
23/02/2021 15:00 13.1 67 460.8 600 0.0 10.4 37.4 140
23/02/2021 15:10 12.9 69 436.0 600 0.0 10.1 36.4 136
23/02/2021 15:20 13.3 69 405.6 600 0.0 9.2 33.2 140
23/02/2021 15:30 13.2 69 372.1 600 0.0 8.8 31.5 139
23/02/2021 15:40 12.9 67 339.4 600 0.0 9.3 33.5 144
23/02/2021 15:50 12.8 68 313.7 600 0.0 8.5 30.4 147
23/02/2021 16:00 12.6 71 283.1 600 0.0 8.0 28.8 148
23/02/2021 16:10 12.6 69 256.8 600 0.0 9.2 33.2 143
23/02/2021 16:20 12.5 70 234.1 600 0.0 9.0 32.4 144
23/02/2021 16:30 12.2 72 199.9 600 0.0 8.1 29.3 143
23/02/2021 16:40 11.9 74 173.5 600 0.0 8.2 29.4 146
23/02/2021 16:50 11.6 79 140.6 600 0.0 6.1 21.9 138
23/02/2021 17:00 11.4 79 112.4 600 0.0 6.8 24.4 140
23/02/2021 17:10 11.1 82 78.8 600 0.0 6.5 23.3 138
23/02/2021 17:20 10.8 83 53.6 600 0.0 6.2 22.4 139
23/02/2021 17:30 10.5 83 32.8 382 0.0 6.3 22.6 144
23/02/2021 17:40 10.2 84 11.7 0 0.0 6.8 24.4 142
23/02/2021 17:50 9.9 85 0.0 0 0.0 7.1 25.6 142
23/02/2021 18:00 9.6 86 0.0 0 0.0 7.0 25.2 142
23/02/2021 18:10 9.3 87 0.0 0 0.0 6.8 24.4 145
23/02/2021 18:20 9.2 88 0.0 0 0.0 7.3 26.2 144
23/02/2021 18:30 9.1 88 0.0 0 0.0 7.9 28.6 143
23/02/2021 18:40 9.0 91 0.0 0 0.0 8.2 29.3 144
23/02/2021 18:50 8.9 92 0.0 0 0.0 8.4 30.2 143
23/02/2021 19:00 9.0 93 0.0 0 0.0 8.0 28.9 141
23/02/2021 19:10 9.0 92 0.0 0 0.0 8.3 29.8 138
23/02/2021 19:20 9.0 91 0.0 0 0.0 8.4 30.1 138
23/02/2021 19:30 9.1 91 0.0 0 0.0 8.1 29.2 140
23/02/2021 19:40 8.9 91 0.0 0 0.0 7.6 27.2 140
23/02/2021 19:50 8.9 92 0.0 0 0.0 7.1 25.7 140
23/02/2021 20:00 8.9 92 0.0 0 0.0 7.1 25.6 144
23/02/2021 20:10 8.9 92 0.0 0 0.0 6.9 24.7 144
23/02/2021 20:20 8.8 92 0.0 0 0.0 7.1 25.5 145
23/02/2021 20:30 8.6 93 0.0 0 0.0 6.4 23.0 147
23/02/2021 20:40 8.4 95 0.0 0 0.0 6.4 22.9 147
23/02/2021 20:50 8.5 94 0.0 0 0.0 6.7 24.1 152
23/02/2021 21:00 8.8 91 0.0 0 0.0 6.5 23.3 149
23/02/2021 21:10 8.7 91 0.0 0 0.0 6.6 23.6 150
23/02/2021 21:20 8.6 92 0.0 0 0.0 6.5 23.5 149
23/02/2021 21:30 8.7 91 0.0 0 0.0 6.6 23.9 148
23/02/2021 21:40 8.6 92 0.0 0 0.0 6.8 24.6 146
23/02/2021 21:50 8.6 92 0.0 0 0.0 7.0 25.1 148
23/02/2021 22:00 8.6 93 0.0 0 0.0 6.1 22.0 149
23/02/2021 22:10 8.5 94 0.0 0 0.0 6.5 23.4 152
23/02/2021 22:20 8.5 94 0.0 0 0.0 6.0 21.6 151
23/02/2021 22:30 8.4 96 0.0 0 0.0 5.8 20.9 151
23/02/2021 22:40 8.3 97 0.0 0 0.0 6.2 22.3 146
23/02/2021 22:50 8.1 100 0.0 0 0.0 6.8 24.4 147
23/02/2021 23:00 8.1 100 0.0 0 0.0 6.6 23.9 148
23/02/2021 23:10 8.0 100 0.0 0 0.0 6.6 23.8 146
23/02/2021 23:20 8.0 100 0.0 0 0.0 6.7 24.2 145
23/02/2021 23:30 8.0 100 0.0 0 0.0 6.9 25.0 145
23/02/2021 23:40 8.1 100 0.0 0 0.0 7.0 25.2 145
23/02/2021 23:50 8.2 100 0.0 0 0.0 7.2 25.8 147
Anterior Página 1 de 1 Siguiente

NOTA: Tipo de datos según el color:
   - Valores diarios o 10 minutos correctos
   - Valores diarios calculados a partir de un número de datos 10 minutos menor que 144 y mayor que 120, o de un número de datos semihorarios menor que 48 y mayor que 40 (caso de las estaciones de INTIA Y Ministerio)
   - Valores diez minutos estimados


Contacto        Enlaces        Aviso legal